createdAt,value
2023-02-08T00:01:26.874Z,17.90
2023-02-08T00:06:34.971Z,18.90
2023-02-08T00:09:02.816Z,19.27
2023-02-08T00:11:29.850Z,16.10
2023-02-08T00:13:56.559Z,16.33
2023-02-08T00:16:26.473Z,17.40
2023-02-08T00:18:53.417Z,22.57
2023-02-08T00:21:20.428Z,19.27
2023-02-08T00:23:47.848Z,20.40
2023-02-08T00:26:14.955Z,20.57
2023-02-08T00:28:44.609Z,18.00
2023-02-08T00:31:14.027Z,22.67
2023-02-08T00:33:43.378Z,24.70
2023-02-08T00:36:13.512Z,22.37
2023-02-08T00:38:40.300Z,20.77
2023-02-08T00:41:07.227Z,18.43
2023-02-08T00:43:34.417Z,19.83
2023-02-08T00:46:01.211Z,16.77
2023-02-08T00:48:28.873Z,15.33
2023-02-08T00:51:15.312Z,15.07
2023-02-08T00:53:45.512Z,15.60
2023-02-08T00:56:14.322Z,17.20
2023-02-08T00:58:47.214Z,17.43
2023-02-08T01:01:24.594Z,14.47
2023-02-08T01:03:51.318Z,17.83
2023-02-08T01:06:18.883Z,16.53
2023-02-08T01:08:46.106Z,17.20
2023-02-08T01:11:18.597Z,17.20
2023-02-08T01:13:46.028Z,16.10
2023-02-08T01:16:18.076Z,13.87
2023-02-08T01:18:50.446Z,14.70
2023-02-08T01:21:21.724Z,17.20
2023-02-08T01:23:49.635Z,13.73
2023-02-08T01:26:18.481Z,15.57
2023-02-08T01:28:45.422Z,14.73
2023-02-08T01:31:16.537Z,13.57
2023-02-08T01:33:43.909Z,15.87
2023-02-08T01:36:11.778Z,17.27
2023-02-08T01:38:42.062Z,14.07
2023-02-08T01:41:21.050Z,13.97
2023-02-08T01:44:19.619Z,14.97
2023-02-08T01:46:51.028Z,15.47
2023-02-08T01:49:34.733Z,14.67
2023-02-08T01:52:19.334Z,13.50
2023-02-08T01:54:57.508Z,16.80
2023-02-08T01:57:26.474Z,11.33
2023-02-08T02:00:07.953Z,17.30
2023-02-08T02:02:39.212Z,15.00
2023-02-08T02:05:07.183Z,12.80
2023-02-08T02:07:34.104Z,14.03
2023-02-08T02:10:24.760Z,13.77
2023-02-08T02:12:53.620Z,13.57
2023-02-08T02:15:21.106Z,14.27
2023-02-08T02:17:48.400Z,17.90
2023-02-08T02:20:38.529Z,14.47
2023-02-08T02:23:36.634Z,12.67
2023-02-08T02:26:36.128Z,13.53
2023-02-08T02:29:32.557Z,13.77
2023-02-08T02:32:39.085Z,13.70
2023-02-08T02:35:19.861Z,13.33
2023-02-08T02:38:04.897Z,14.03
2023-02-08T02:41:01.868Z,14.30
2023-02-08T02:43:46.429Z,13.47
2023-02-08T02:46:40.350Z,13.67
2023-02-08T02:49:31.226Z,15.93
2023-02-08T02:52:08.402Z,16.27
2023-02-08T02:54:52.311Z,17.23
2023-02-08T02:57:29.949Z,15.13
2023-02-08T03:00:00.730Z,14.30
2023-02-08T03:02:30.595Z,12.97
2023-02-08T03:05:00.102Z,12.23
2023-02-08T03:07:56.139Z,12.33
2023-02-08T03:10:34.895Z,13.20
2023-02-08T03:13:18.234Z,12.93
2023-02-08T03:15:56.924Z,12.67
2023-02-08T03:18:39.199Z,12.57
2023-02-08T03:21:46.328Z,15.00
2023-02-08T03:24:27.017Z,14.33
2023-02-08T03:27:18.586Z,12.47
2023-02-08T03:29:55.393Z,12.63
2023-02-08T03:32:44.042Z,11.40
2023-02-08T03:35:31.605Z,12.47
2023-02-08T03:38:20.313Z,14.40
2023-02-08T03:40:53.564Z,14.40
2023-02-08T03:44:13.342Z,12.10
2023-02-08T03:46:49.607Z,11.43
2023-02-08T03:49:26.230Z,12.77
2023-02-08T03:51:58.506Z,15.17
2023-02-08T03:54:29.713Z,13.17
2023-02-08T03:57:10.834Z,14.13
2023-02-08T03:59:42.769Z,13.43
2023-02-08T04:02:19.641Z,13.93
2023-02-08T04:04:50.766Z,12.20
2023-02-08T04:07:22.020Z,13.80
2023-02-08T04:09:48.782Z,14.87
2023-02-08T04:12:15.603Z,13.93
2023-02-08T04:14:49.362Z,16.47
2023-02-08T04:17:16.074Z,13.47
2023-02-08T04:19:42.813Z,12.60
2023-02-08T04:22:09.654Z,12.80
2023-02-08T04:24:39.614Z,14.43
2023-02-08T04:27:06.446Z,13.17
2023-02-08T04:29:33.198Z,15.30
2023-02-08T04:32:02.495Z,10.87
2023-02-08T04:34:29.214Z,11.93
2023-02-08T04:36:59.003Z,12.60
2023-02-08T04:39:25.900Z,12.37
2023-02-08T04:41:52.640Z,13.13
2023-02-08T04:44:19.365Z,11.20
2023-02-08T04:46:48.702Z,12.60
2023-02-08T04:49:15.926Z,11.90
2023-02-08T04:51:44.775Z,11.47
2023-02-08T04:54:11.888Z,11.50
2023-02-08T04:56:38.717Z,12.23
2023-02-08T04:59:07.507Z,13.07
2023-02-08T05:01:37.337Z,12.63
2023-02-08T05:04:07.227Z,13.13
2023-02-08T05:06:34.046Z,10.90
2023-02-08T05:09:00.761Z,12.77
2023-02-08T05:11:28.084Z,11.73
2023-02-08T05:13:57.373Z,14.10
2023-02-08T05:16:24.226Z,14.30
2023-02-08T05:18:51.060Z,13.37
2023-02-08T05:21:17.911Z,12.67
2023-02-08T05:23:46.637Z,13.07
2023-02-08T05:26:13.729Z,11.57
2023-02-08T05:28:40.450Z,13.80
2023-02-08T05:31:25.675Z,12.27
2023-02-08T05:33:53.565Z,13.33
2023-02-08T05:36:24.038Z,12.40
2023-02-08T05:38:56.262Z,14.10
2023-02-08T05:41:29.482Z,12.13
2023-02-08T05:43:59.236Z,15.77
2023-02-08T05:46:25.948Z,12.53
2023-02-08T05:48:52.741Z,11.40
2023-02-08T05:51:20.790Z,12.20
2023-02-08T05:53:47.691Z,11.47
2023-02-08T05:56:17.084Z,12.47
2023-02-08T05:58:43.818Z,12.70
2023-02-08T06:01:13.711Z,13.47
2023-02-08T06:03:41.602Z,17.07
2023-02-08T06:06:11.103Z,14.97
2023-02-08T06:08:38.964Z,13.00
2023-02-08T06:11:11.162Z,14.10
2023-02-08T06:13:41.408Z,16.40
2023-02-08T06:16:08.710Z,14.53
2023-02-08T06:18:35.518Z,12.30
2023-02-08T06:21:02.234Z,13.97
2023-02-08T06:23:29.024Z,13.57
2023-02-08T06:25:57.226Z,13.90
2023-02-08T06:28:24.125Z,12.90
2023-02-08T06:30:51.765Z,12.40
2023-02-08T06:36:02.632Z,12.47
2023-02-08T06:38:29.473Z,12.10
2023-02-08T06:40:56.346Z,13.10
2023-02-08T06:43:23.222Z,14.50
2023-02-08T06:45:53.102Z,16.83
2023-02-08T06:48:19.867Z,16.97
2023-02-08T06:50:46.650Z,13.57
2023-02-08T06:53:16.517Z,13.93
2023-02-08T06:55:48.414Z,13.80
2023-02-08T06:58:15.190Z,12.93
2023-02-08T07:00:42.403Z,16.03
2023-02-08T07:03:09.928Z,15.10
2023-02-08T07:05:37.616Z,16.77
2023-02-08T07:08:06.687Z,13.40
2023-02-08T07:10:34.035Z,13.23
2023-02-08T07:13:02.604Z,14.50
2023-02-08T07:15:30.886Z,13.47
2023-02-08T07:17:57.843Z,13.80
2023-02-08T07:20:26.831Z,11.60
2023-02-08T07:22:53.758Z,13.27
2023-02-08T07:25:20.541Z,14.83
2023-02-08T07:27:47.350Z,12.80
2023-02-08T07:30:17.314Z,13.47
2023-02-08T07:32:44.194Z,11.90
2023-02-08T07:35:13.052Z,12.80
2023-02-08T07:37:41.932Z,11.87
2023-02-08T07:40:09.611Z,14.60
2023-02-08T07:42:36.348Z,12.67
2023-02-08T07:45:04.293Z,15.30
2023-02-08T07:47:31.086Z,14.50
2023-02-08T07:49:57.852Z,13.93
2023-02-08T07:52:24.693Z,12.67
2023-02-08T07:54:51.455Z,12.47
2023-02-08T07:57:21.138Z,11.67
2023-02-08T07:59:48.614Z,12.10
2023-02-08T08:02:16.314Z,11.30
2023-02-08T08:04:43.200Z,14.77
2023-02-08T08:07:10.077Z,12.27
2023-02-08T08:09:39.882Z,13.23
2023-02-08T08:12:06.913Z,14.33
2023-02-08T08:14:33.667Z,15.00
2023-02-08T08:17:00.391Z,13.90
2023-02-08T08:19:27.201Z,11.93
2023-02-08T08:21:54.102Z,12.00
2023-02-08T08:24:20.930Z,11.10
2023-02-08T08:26:47.728Z,13.03
2023-02-08T08:29:16.983Z,12.57
2023-02-08T08:31:44.645Z,12.43
2023-02-08T08:34:13.866Z,12.83
2023-02-08T08:36:40.624Z,15.33
2023-02-08T08:39:10.498Z,12.27
2023-02-08T08:41:40.374Z,12.90
2023-02-08T08:44:07.144Z,13.93
2023-02-08T08:46:33.929Z,14.73
2023-02-08T08:49:03.238Z,14.13
2023-02-08T08:51:31.752Z,12.57
2023-02-08T08:53:58.646Z,12.40
2023-02-08T08:56:25.382Z,16.03
2023-02-08T08:58:55.323Z,12.17
2023-02-08T09:01:22.311Z,11.60
2023-02-08T09:03:49.113Z,15.60
2023-02-08T09:06:17.110Z,12.00
2023-02-08T09:08:43.920Z,12.63
2023-02-08T09:11:14.342Z,15.33
2023-02-08T09:13:46.795Z,15.47
2023-02-08T09:16:18.284Z,13.77
2023-02-08T09:18:46.332Z,13.70
2023-02-08T09:21:20.453Z,13.07
2023-02-08T09:23:48.049Z,14.50
2023-02-08T09:26:19.339Z,12.47
2023-02-08T09:28:49.310Z,14.73
2023-02-08T09:31:29.939Z,13.50
2023-02-08T09:34:00.687Z,12.07
2023-02-08T09:36:32.273Z,12.33
2023-02-08T09:39:10.447Z,12.83
2023-02-08T09:42:09.037Z,11.30
2023-02-08T09:45:23.861Z,11.97
2023-02-08T09:48:15.526Z,14.13
2023-02-08T09:50:50.686Z,10.47
2023-02-08T09:53:37.587Z,11.17
2023-02-08T09:56:15.573Z,13.43
2023-02-08T09:58:51.114Z,16.77
2023-02-08T10:01:29.634Z,12.77
2023-02-08T10:04:29.848Z,11.90
2023-02-08T10:06:59.620Z,11.83
2023-02-08T10:09:27.648Z,10.83
2023-02-08T10:12:32.163Z,12.50
2023-02-08T10:15:12.932Z,12.93
2023-02-08T10:18:20.491Z,11.40
2023-02-08T10:21:19.870Z,11.60
2023-02-08T10:24:11.583Z,13.13
2023-02-08T10:26:57.639Z,11.07
2023-02-08T10:30:02.455Z,10.20
2023-02-08T10:33:07.253Z,10.37
2023-02-08T10:35:42.677Z,9.53
2023-02-08T10:38:45.511Z,10.33
2023-02-08T10:41:22.691Z,8.57
2023-02-08T10:44:23.007Z,10.83
2023-02-08T10:47:32.340Z,9.00
2023-02-08T10:50:21.505Z,7.97
2023-02-08T10:52:49.103Z,10.33
2023-02-08T10:55:21.785Z,9.33
2023-02-08T10:57:53.936Z,10.07
2023-02-08T11:00:39.414Z,9.97
2023-02-08T11:03:29.274Z,8.40
2023-02-08T11:05:57.159Z,9.00
2023-02-08T11:08:27.722Z,8.53
2023-02-08T11:11:09.989Z,8.93
2023-02-08T11:13:44.374Z,9.33
2023-02-08T11:16:27.881Z,8.07
2023-02-08T11:18:59.385Z,7.33
2023-02-08T11:21:36.683Z,8.10
2023-02-08T11:24:17.628Z,9.33
2023-02-08T11:26:44.520Z,8.47
2023-02-08T11:29:23.314Z,9.10
2023-02-08T11:32:02.107Z,9.33
2023-02-08T11:34:39.164Z,8.50
2023-02-08T11:37:28.671Z,9.73
2023-02-08T11:39:59.231Z,8.67
2023-02-08T11:42:47.000Z,12.60
2023-02-08T11:45:37.364Z,8.33
2023-02-08T11:48:14.484Z,7.27
2023-02-08T11:50:42.130Z,9.33
2023-02-08T11:53:27.854Z,7.13
2023-02-08T11:56:27.919Z,7.27
2023-02-08T11:59:20.384Z,8.23
2023-02-08T12:01:47.252Z,8.50
2023-02-08T12:04:17.404Z,6.70
2023-02-08T12:07:13.022Z,8.17
2023-02-08T12:10:12.459Z,7.83
2023-02-08T12:13:22.684Z,9.97
2023-02-08T12:16:42.685Z,8.00
2023-02-08T12:19:52.609Z,8.13
2023-02-08T12:22:26.449Z,11.43
2023-02-08T12:25:37.104Z,8.43
2023-02-08T12:28:32.370Z,9.00
2023-02-08T12:31:16.846Z,9.70
2023-02-08T12:33:58.993Z,10.23
2023-02-08T12:36:28.720Z,13.07
2023-02-08T12:39:38.466Z,8.77
2023-02-08T12:42:24.005Z,8.37
2023-02-08T12:45:09.825Z,8.80
2023-02-08T12:48:27.621Z,8.90
2023-02-08T12:51:19.024Z,7.27
2023-02-08T12:53:59.067Z,8.00
2023-02-08T12:56:38.334Z,8.33
2023-02-08T12:59:13.939Z,8.87
2023-02-08T13:01:51.596Z,8.67
2023-02-08T13:04:29.770Z,8.57
2023-02-08T13:07:13.980Z,8.10
2023-02-08T13:09:56.480Z,7.17
2023-02-08T13:12:36.031Z,7.67
2023-02-08T13:15:31.333Z,9.80
2023-02-08T13:18:31.243Z,8.33
2023-02-08T13:21:05.467Z,6.70
2023-02-08T13:23:52.576Z,7.43
2023-02-08T13:26:31.214Z,6.53
2023-02-08T13:29:02.306Z,7.13
2023-02-08T13:31:41.171Z,7.20
2023-02-08T13:34:44.772Z,8.37
2023-02-08T13:37:31.438Z,7.33
2023-02-08T13:40:27.780Z,5.87
2023-02-08T13:43:35.155Z,7.90
2023-02-08T13:46:05.061Z,6.97
2023-02-08T13:48:59.935Z,6.57
2023-02-08T13:51:32.889Z,7.20
2023-02-08T13:54:12.412Z,7.70
2023-02-08T13:56:51.770Z,5.93
2023-02-08T13:59:37.869Z,8.77
2023-02-08T14:02:18.916Z,6.67
2023-02-08T14:05:36.619Z,7.87
2023-02-08T14:08:06.240Z,7.57
2023-02-08T14:10:45.436Z,8.27
2023-02-08T14:13:57.821Z,7.80
2023-02-08T14:16:36.135Z,6.70
2023-02-08T14:19:24.273Z,7.93
2023-02-08T14:22:08.019Z,6.63
2023-02-08T14:24:48.385Z,7.83
2023-02-08T14:27:42.305Z,9.17
2023-02-08T14:30:18.200Z,5.83
2023-02-08T14:32:54.279Z,8.17
2023-02-08T14:35:32.388Z,8.33
2023-02-08T14:38:23.892Z,8.70
2023-02-08T14:41:01.919Z,6.93
2023-02-08T14:43:37.537Z,6.17
2023-02-08T14:46:42.087Z,7.13
2023-02-08T14:49:15.841Z,8.97
2023-02-08T14:51:50.434Z,7.67
2023-02-08T14:54:32.544Z,8.80
2023-02-08T14:57:29.298Z,8.13
2023-02-08T15:00:01.632Z,7.67
2023-02-08T15:02:31.478Z,6.03
2023-02-08T15:05:00.641Z,7.00
2023-02-08T15:08:12.638Z,7.73
2023-02-08T15:10:44.864Z,5.67
2023-02-08T15:13:24.465Z,6.10
2023-02-08T15:15:56.407Z,8.67
2023-02-08T15:18:33.532Z,6.60
2023-02-08T15:21:08.256Z,6.00
2023-02-08T15:23:37.070Z,10.37
2023-02-08T15:26:22.918Z,6.67
2023-02-08T15:28:49.684Z,7.93
2023-02-08T15:31:32.544Z,8.07
2023-02-08T15:34:01.833Z,7.57
2023-02-08T15:36:36.435Z,7.40
2023-02-08T15:39:32.609Z,7.27
2023-02-08T15:42:02.623Z,6.67
2023-02-08T15:44:33.659Z,7.47
2023-02-08T15:47:10.026Z,7.77
2023-02-08T15:49:46.838Z,6.47
2023-02-08T15:52:23.375Z,7.10
2023-02-08T15:54:53.597Z,11.43
2023-02-08T15:57:35.448Z,5.50
2023-02-08T16:00:12.983Z,5.90
2023-02-08T16:02:41.193Z,7.13
2023-02-08T16:05:30.830Z,5.60
2023-02-08T16:08:00.613Z,6.10
2023-02-08T16:10:52.606Z,5.57
2023-02-08T16:13:31.485Z,4.10
2023-02-08T16:16:25.277Z,6.23
2023-02-08T16:19:04.523Z,8.27
2023-02-08T16:21:41.718Z,7.90
2023-02-08T16:24:16.587Z,6.83
2023-02-08T16:27:18.842Z,5.07
2023-02-08T16:29:47.876Z,3.60
2023-02-08T16:32:39.534Z,3.57
2023-02-08T16:35:33.834Z,5.53
2023-02-08T16:38:02.843Z,6.67
2023-02-08T16:40:51.559Z,5.90
2023-02-08T16:43:25.472Z,7.03
2023-02-08T16:46:11.100Z,5.10
2023-02-08T16:48:42.366Z,6.17
2023-02-08T16:51:21.887Z,6.00
2023-02-08T16:56:39.334Z,7.17
2023-02-08T16:59:06.713Z,7.47
2023-02-08T17:01:35.284Z,6.97
2023-02-08T17:04:02.150Z,6.30
2023-02-08T17:06:35.334Z,7.07
2023-02-08T17:09:05.362Z,5.60
2023-02-08T17:11:32.786Z,4.80
2023-02-08T17:13:59.896Z,9.05
2023-02-08T17:16:29.963Z,7.23
2023-02-08T17:19:01.377Z,4.93
2023-02-08T17:21:31.728Z,5.43
2023-02-08T17:23:58.866Z,7.23
2023-02-08T17:26:29.521Z,9.47
2023-02-08T17:28:59.082Z,10.17
2023-02-08T17:31:29.667Z,7.33
2023-02-08T17:34:04.318Z,9.67
2023-02-08T17:36:34.716Z,10.70
2023-02-08T17:39:02.255Z,8.80
2023-02-08T17:41:29.050Z,9.07
2023-02-08T17:43:59.826Z,9.07
2023-02-08T17:46:30.803Z,8.27
2023-02-08T17:49:03.845Z,9.10
2023-02-08T17:51:31.492Z,7.83
2023-02-08T17:53:59.337Z,7.87
2023-02-08T17:56:28.634Z,7.00
2023-02-08T17:58:56.014Z,7.87
2023-02-08T18:01:29.599Z,7.53
2023-02-08T18:04:00.945Z,8.33
2023-02-08T18:06:31.087Z,12.50
2023-02-08T18:09:05.405Z,8.60
2023-02-08T18:11:32.159Z,8.07
2023-02-08T18:14:04.415Z,8.77
2023-02-08T18:16:31.184Z,7.80
2023-02-08T18:19:01.789Z,6.63
2023-02-08T18:21:32.993Z,8.40
2023-02-08T18:24:06.806Z,6.63
2023-02-08T18:26:35.185Z,8.50
2023-02-08T18:29:03.499Z,6.13
2023-02-08T18:31:33.347Z,7.80
2023-02-08T18:34:04.251Z,7.10
2023-02-08T18:36:36.558Z,7.13
2023-02-08T18:39:04.682Z,7.33
2023-02-08T18:41:31.767Z,7.37
2023-02-08T18:44:00.000Z,6.83
2023-02-08T18:46:29.101Z,7.97
2023-02-08T18:48:56.485Z,7.50
2023-02-08T18:51:25.507Z,6.37
2023-02-08T18:53:54.785Z,7.75
2023-02-08T18:56:26.062Z,7.23
2023-02-08T18:58:55.376Z,6.97
2023-02-08T19:01:24.560Z,5.47
2023-02-08T19:03:52.142Z,6.70
2023-02-08T19:06:26.529Z,7.07
2023-02-08T19:08:56.856Z,6.70
2023-02-08T19:11:27.746Z,6.77
2023-02-08T19:14:00.389Z,7.67
2023-02-08T19:16:29.672Z,8.97
2023-02-08T19:18:57.287Z,9.33
2023-02-08T19:21:31.284Z,9.40
2023-02-08T19:24:00.540Z,8.30
2023-02-08T19:26:32.878Z,7.83
2023-02-08T19:29:03.421Z,9.37
2023-02-08T19:31:30.962Z,7.40
2023-02-08T19:34:01.164Z,6.17
2023-02-08T19:36:52.847Z,6.43
2023-02-08T19:39:24.206Z,8.70
2023-02-08T19:41:55.089Z,7.23
2023-02-08T19:44:22.564Z,6.70
2023-02-08T19:46:52.675Z,7.50
2023-02-08T19:49:20.559Z,8.90
2023-02-08T19:51:48.220Z,8.50
2023-02-08T19:54:18.197Z,7.43
2023-02-08T19:56:45.964Z,9.17
2023-02-08T19:59:27.418Z,7.57
2023-02-08T20:01:55.756Z,8.30
2023-02-08T20:04:23.638Z,9.30
2023-02-08T20:06:53.208Z,7.83
2023-02-08T20:09:20.360Z,9.43
2023-02-08T20:11:57.888Z,13.63
2023-02-08T20:14:28.700Z,13.30
2023-02-08T20:16:55.570Z,9.53
2023-02-08T20:19:23.060Z,10.33
2023-02-08T20:21:49.791Z,7.83
2023-02-08T20:24:17.607Z,9.17
2023-02-08T20:26:47.557Z,6.93
2023-02-08T20:29:15.333Z,11.33
2023-02-08T20:31:47.534Z,8.93
2023-02-08T20:34:18.864Z,7.90
2023-02-08T20:37:05.290Z,8.13
2023-02-08T20:39:32.290Z,10.73
2023-02-08T20:42:00.110Z,7.40
2023-02-08T20:44:28.497Z,8.50
2023-02-08T20:46:55.460Z,10.73
2023-02-08T20:49:25.491Z,8.07
2023-02-08T20:51:54.080Z,7.83
2023-02-08T20:54:23.862Z,9.33
2023-02-08T20:56:52.690Z,8.03
2023-02-08T20:59:19.648Z,7.90
2023-02-08T21:01:46.764Z,12.80
2023-02-08T21:04:13.950Z,16.50
2023-02-08T21:06:45.869Z,13.90
2023-02-08T21:09:15.843Z,14.27
2023-02-08T21:11:44.833Z,13.20
2023-02-08T21:14:20.669Z,11.30
2023-02-08T21:16:50.798Z,11.40
2023-02-08T21:19:20.893Z,10.43
2023-02-08T21:22:03.128Z,9.33
2023-02-08T21:24:30.765Z,8.57
2023-02-08T21:26:58.101Z,10.23
2023-02-08T21:29:25.293Z,10.10
2023-02-08T21:31:56.167Z,10.17
2023-02-08T21:34:23.100Z,14.70
2023-02-08T21:36:53.018Z,10.47
2023-02-08T21:39:20.181Z,9.77
2023-02-08T21:41:49.706Z,8.80
2023-02-08T21:44:16.599Z,8.00
2023-02-08T21:46:49.704Z,9.17
2023-02-08T21:49:35.537Z,8.37
2023-02-08T21:52:23.006Z,7.77
2023-02-08T21:54:55.551Z,10.63
2023-02-08T21:57:29.356Z,10.90
2023-02-08T22:00:01.364Z,11.07
2023-02-08T22:02:31.345Z,12.90
2023-02-08T22:05:21.742Z,10.63
2023-02-08T22:07:56.629Z,6.53
2023-02-08T22:10:27.275Z,8.53
2023-02-08T22:12:55.206Z,8.77
2023-02-08T22:15:25.948Z,6.47
2023-02-08T22:17:58.598Z,7.23
2023-02-08T22:20:29.296Z,10.07
2023-02-08T22:22:56.381Z,8.50
2023-02-08T22:25:28.521Z,8.77
2023-02-08T22:27:55.302Z,11.60
2023-02-08T22:30:25.428Z,13.00
2023-02-08T22:32:52.632Z,12.10
2023-02-08T22:35:19.557Z,8.57
2023-02-08T22:37:46.360Z,10.40
2023-02-08T22:40:19.553Z,9.37
2023-02-08T22:42:46.420Z,12.03
2023-02-08T22:45:13.320Z,10.33
2023-02-08T22:47:46.309Z,11.20
2023-02-08T22:50:13.539Z,11.63
2023-02-08T22:52:40.290Z,10.23
2023-02-08T22:55:07.421Z,9.37
2023-02-08T22:57:37.465Z,7.90
2023-02-08T23:00:07.705Z,8.73
2023-02-08T23:02:34.633Z,7.47
2023-02-08T23:05:03.959Z,6.63
2023-02-08T23:07:30.855Z,10.17
2023-02-08T23:10:00.171Z,10.17
2023-02-08T23:12:32.514Z,9.27
2023-02-08T23:14:59.240Z,13.67
2023-02-08T23:17:26.194Z,7.03
2023-02-08T23:19:53.091Z,8.47
2023-02-08T23:22:19.828Z,10.63
2023-02-08T23:24:46.664Z,8.47
2023-02-08T23:27:13.382Z,9.73
2023-02-08T23:29:42.912Z,7.27
2023-02-08T23:32:09.851Z,9.07
2023-02-08T23:34:36.622Z,12.83
2023-02-08T23:37:06.351Z,12.33
2023-02-08T23:39:34.147Z,7.60
2023-02-08T23:42:00.942Z,8.77
2023-02-08T23:44:27.866Z,11.53
2023-02-08T23:46:54.759Z,10.50
2023-02-08T23:49:21.511Z,9.87
2023-02-08T23:51:48.304Z,10.23
2023-02-08T23:54:18.129Z,11.87
2023-02-08T23:56:44.915Z,11.47
2023-02-08T23:59:11.731Z,12.97
